sensor_id;sensor_type;location;lat;lon;timestamp;P1;durP1;ratioP1;P2;durP2;ratioP2
55003;SDS011;40900;52.710;6.438;2023-04-22T00:01:40;23.35;;;20.02;;
55003;SDS011;40900;52.710;6.438;2023-04-22T00:04:06;23.95;;;19.52;;
55003;SDS011;40900;52.710;6.438;2023-04-22T00:06:33;25.58;;;20.25;;
55003;SDS011;40900;52.710;6.438;2023-04-22T00:08:59;25.67;;;20.38;;
55003;SDS011;40900;52.710;6.438;2023-04-22T00:11:25;26.52;;;20.65;;
55003;SDS011;40900;52.710;6.438;2023-04-22T00:13:50;25.23;;;20.90;;
55003;SDS011;40900;52.710;6.438;2023-04-22T00:16:16;22.17;;;19.33;;
55003;SDS011;40900;52.710;6.438;2023-04-22T00:18:42;25.58;;;21.15;;
55003;SDS011;40900;52.710;6.438;2023-04-22T00:21:08;27.75;;;21.70;;
55003;SDS011;40900;52.710;6.438;2023-04-22T00:23:34;24.65;;;20.63;;
55003;SDS011;40900;52.710;6.438;2023-04-22T00:26:00;24.33;;;19.98;;
55003;SDS011;40900;52.710;6.438;2023-04-22T00:28:26;24.13;;;20.60;;
55003;SDS011;40900;52.710;6.438;2023-04-22T00:30:52;27.02;;;21.60;;
55003;SDS011;40900;52.710;6.438;2023-04-22T00:33:18;24.75;;;19.42;;
55003;SDS011;40900;52.710;6.438;2023-04-22T00:35:44;25.60;;;19.77;;
55003;SDS011;40900;52.710;6.438;2023-04-22T00:38:11;23.98;;;21.05;;
55003;SDS011;40900;52.710;6.438;2023-04-22T00:40:36;35.83;;;25.75;;
55003;SDS011;40900;52.710;6.438;2023-04-22T00:43:02;29.90;;;22.77;;
55003;SDS011;40900;52.710;6.438;2023-04-22T00:45:28;24.80;;;21.58;;
55003;SDS011;40900;52.710;6.438;2023-04-22T00:47:55;24.85;;;20.52;;
55003;SDS011;40900;52.710;6.438;2023-04-22T00:50:21;25.95;;;21.17;;
55003;SDS011;40900;52.710;6.438;2023-04-22T00:52:46;28.40;;;22.17;;
55003;SDS011;40900;52.710;6.438;2023-04-22T00:55:12;28.52;;;20.75;;
55003;SDS011;40900;52.710;6.438;2023-04-22T00:57:39;24.65;;;20.25;;
55003;SDS011;40900;52.710;6.438;2023-04-22T01:00:06;27.42;;;21.77;;
55003;SDS011;40900;52.710;6.438;2023-04-22T01:02:35;27.20;;;20.75;;
55003;SDS011;40900;52.710;6.438;2023-04-22T01:05:05;26.05;;;19.95;;
55003;SDS011;40900;52.710;6.438;2023-04-22T01:07:33;26.58;;;20.88;;
55003;SDS011;40900;52.710;6.438;2023-04-22T01:10:00;28.50;;;21.13;;
55003;SDS011;40900;52.710;6.438;2023-04-22T01:12:27;25.45;;;20.88;;
55003;SDS011;40900;52.710;6.438;2023-04-22T01:14:52;26.27;;;21.00;;
55003;SDS011;40900;52.710;6.438;2023-04-22T01:17:18;22.33;;;19.42;;
55003;SDS011;40900;52.710;6.438;2023-04-22T01:19:45;20.38;;;17.52;;
55003;SDS011;40900;52.710;6.438;2023-04-22T01:22:12;25.63;;;20.30;;
55003;SDS011;40900;52.710;6.438;2023-04-22T01:24:39;28.67;;;20.63;;
55003;SDS011;40900;52.710;6.438;2023-04-22T01:27:05;22.08;;;19.40;;
55003;SDS011;40900;52.710;6.438;2023-04-22T01:29:31;25.30;;;19.77;;
55003;SDS011;40900;52.710;6.438;2023-04-22T01:31:57;19.65;;;17.55;;
55003;SDS011;40900;52.710;6.438;2023-04-22T01:34:24;25.42;;;19.85;;
55003;SDS011;40900;52.710;6.438;2023-04-22T01:36:50;25.17;;;20.88;;
55003;SDS011;40900;52.710;6.438;2023-04-22T01:39:16;20.88;;;17.98;;
55003;SDS011;40900;52.710;6.438;2023-04-22T01:41:42;20.60;;;17.92;;
55003;SDS011;40900;52.710;6.438;2023-04-22T01:44:08;25.13;;;19.17;;
55003;SDS011;40900;52.710;6.438;2023-04-22T01:46:34;20.75;;;18.52;;
55003;SDS011;40900;52.710;6.438;2023-04-22T01:48:59;23.27;;;18.85;;
55003;SDS011;40900;52.710;6.438;2023-04-22T01:51:25;22.13;;;17.42;;
55003;SDS011;40900;52.710;6.438;2023-04-22T01:53:51;19.70;;;17.40;;
55003;SDS011;40900;52.710;6.438;2023-04-22T01:56:17;27.20;;;19.42;;
55003;SDS011;40900;52.710;6.438;2023-04-22T01:58:42;28.70;;;19.63;;
55003;SDS011;40900;52.710;6.438;2023-04-22T02:01:09;19.60;;;16.65;;
55003;SDS011;40900;52.710;6.438;2023-04-22T02:03:35;19.30;;;17.08;;
55003;SDS011;40900;52.710;6.438;2023-04-22T02:06:01;22.42;;;18.40;;
55003;SDS011;40900;52.710;6.438;2023-04-22T02:08:27;22.98;;;18.13;;
55003;SDS011;40900;52.710;6.438;2023-04-22T02:10:53;23.05;;;18.92;;
55003;SDS011;40900;52.710;6.438;2023-04-22T02:13:18;19.73;;;16.92;;
55003;SDS011;40900;52.710;6.438;2023-04-22T02:15:44;20.83;;;18.50;;
55003;SDS011;40900;52.710;6.438;2023-04-22T02:18:10;22.45;;;18.42;;
55003;SDS011;40900;52.710;6.438;2023-04-22T02:20:36;23.02;;;18.77;;
55003;SDS011;40900;52.710;6.438;2023-04-22T02:23:02;20.40;;;17.77;;
55003;SDS011;40900;52.710;6.438;2023-04-22T02:25:28;22.63;;;19.52;;
55003;SDS011;40900;52.710;6.438;2023-04-22T02:27:54;23.98;;;20.25;;
55003;SDS011;40900;52.710;6.438;2023-04-22T02:30:20;20.40;;;18.27;;
55003;SDS011;40900;52.710;6.438;2023-04-22T02:32:46;21.65;;;18.83;;
55003;SDS011;40900;52.710;6.438;2023-04-22T02:35:12;24.75;;;20.48;;
55003;SDS011;40900;52.710;6.438;2023-04-22T02:37:38;25.63;;;20.63;;
55003;SDS011;40900;52.710;6.438;2023-04-22T02:40:03;22.63;;;19.52;;
55003;SDS011;40900;52.710;6.438;2023-04-22T02:42:31;20.80;;;17.80;;
55003;SDS011;40900;52.710;6.438;2023-04-22T02:44:57;20.08;;;17.63;;
55003;SDS011;40900;52.710;6.438;2023-04-22T02:47:23;18.75;;;16.73;;
55003;SDS011;40900;52.710;6.438;2023-04-22T02:49:48;19.52;;;17.45;;
55003;SDS011;40900;52.710;6.438;2023-04-22T02:52:14;21.25;;;18.17;;
55003;SDS011;40900;52.710;6.438;2023-04-22T02:54:40;19.90;;;16.95;;
55003;SDS011;40900;52.710;6.438;2023-04-22T02:57:06;20.30;;;18.08;;
55003;SDS011;40900;52.710;6.438;2023-04-22T02:59:31;21.95;;;17.95;;
55003;SDS011;40900;52.710;6.438;2023-04-22T03:01:59;21.55;;;18.30;;
55003;SDS011;40900;52.710;6.438;2023-04-22T03:04:24;17.20;;;15.10;;
55003;SDS011;40900;52.710;6.438;2023-04-22T03:06:51;22.80;;;17.08;;
55003;SDS011;40900;52.710;6.438;2023-04-22T03:09:16;20.42;;;17.25;;
55003;SDS011;40900;52.710;6.438;2023-04-22T03:11:42;17.98;;;14.30;;
55003;SDS011;40900;52.710;6.438;2023-04-22T03:14:08;22.73;;;16.85;;
55003;SDS011;40900;52.710;6.438;2023-04-22T03:16:35;20.73;;;16.55;;
55003;SDS011;40900;52.710;6.438;2023-04-22T03:19:01;20.73;;;16.98;;
55003;SDS011;40900;52.710;6.438;2023-04-22T03:21:26;17.27;;;15.48;;
55003;SDS011;40900;52.710;6.438;2023-04-22T03:23:52;16.85;;;14.93;;
55003;SDS011;40900;52.710;6.438;2023-04-22T03:26:18;23.45;;;17.80;;
55003;SDS011;40900;52.710;6.438;2023-04-22T03:28:44;19.17;;;17.17;;
55003;SDS011;40900;52.710;6.438;2023-04-22T03:31:10;19.73;;;17.23;;
55003;SDS011;40900;52.710;6.438;2023-04-22T03:33:35;20.23;;;16.48;;
55003;SDS011;40900;52.710;6.438;2023-04-22T03:36:01;19.05;;;16.25;;
55003;SDS011;40900;52.710;6.438;2023-04-22T03:38:27;21.42;;;17.92;;
55003;SDS011;40900;52.710;6.438;2023-04-22T03:40:52;22.92;;;18.58;;
55003;SDS011;40900;52.710;6.438;2023-04-22T03:43:18;22.02;;;18.63;;
55003;SDS011;40900;52.710;6.438;2023-04-22T03:45:44;20.20;;;17.58;;
55003;SDS011;40900;52.710;6.438;2023-04-22T03:48:09;20.10;;;17.65;;
55003;SDS011;40900;52.710;6.438;2023-04-22T03:50:35;18.90;;;16.88;;
55003;SDS011;40900;52.710;6.438;2023-04-22T03:53:01;19.83;;;17.00;;
55003;SDS011;40900;52.710;6.438;2023-04-22T03:55:26;20.27;;;17.33;;
55003;SDS011;40900;52.710;6.438;2023-04-22T03:57:52;19.60;;;17.50;;
55003;SDS011;40900;52.710;6.438;2023-04-22T04:00:18;21.00;;;18.80;;
55003;SDS011;40900;52.710;6.438;2023-04-22T04:02:44;22.48;;;19.42;;
55003;SDS011;40900;52.710;6.438;2023-04-22T04:05:09;24.27;;;21.65;;
55003;SDS011;40900;52.710;6.438;2023-04-22T04:07:36;25.92;;;21.27;;
55003;SDS011;40900;52.710;6.438;2023-04-22T04:10:02;25.90;;;22.25;;
55003;SDS011;40900;52.710;6.438;2023-04-22T04:12:28;24.70;;;21.45;;
55003;SDS011;40900;52.710;6.438;2023-04-22T04:14:53;23.63;;;20.77;;
55003;SDS011;40900;52.710;6.438;2023-04-22T04:17:19;22.95;;;20.50;;
55003;SDS011;40900;52.710;6.438;2023-04-22T04:19:45;20.75;;;17.15;;
55003;SDS011;40900;52.710;6.438;2023-04-22T04:22:11;18.95;;;16.45;;
55003;SDS011;40900;52.710;6.438;2023-04-22T04:24:37;18.67;;;15.93;;
55003;SDS011;40900;52.710;6.438;2023-04-22T04:27:06;20.67;;;16.83;;
55003;SDS011;40900;52.710;6.438;2023-04-22T04:29:33;20.58;;;17.35;;
55003;SDS011;40900;52.710;6.438;2023-04-22T04:31:59;19.00;;;16.42;;
55003;SDS011;40900;52.710;6.438;2023-04-22T04:34:25;21.25;;;18.92;;
55003;SDS011;40900;52.710;6.438;2023-04-22T04:36:51;21.52;;;19.23;;
55003;SDS011;40900;52.710;6.438;2023-04-22T04:39:16;22.35;;;19.10;;
55003;SDS011;40900;52.710;6.438;2023-04-22T04:41:43;22.13;;;19.73;;
55003;SDS011;40900;52.710;6.438;2023-04-22T04:44:09;24.00;;;20.40;;
55003;SDS011;40900;52.710;6.438;2023-04-22T04:46:35;25.77;;;22.90;;
55003;SDS011;40900;52.710;6.438;2023-04-22T04:49:02;26.85;;;24.05;;
55003;SDS011;40900;52.710;6.438;2023-04-22T04:51:33;30.52;;;23.25;;
55003;SDS011;40900;52.710;6.438;2023-04-22T04:53:59;27.88;;;22.98;;
55003;SDS011;40900;52.710;6.438;2023-04-22T04:56:25;26.17;;;23.48;;
55003;SDS011;40900;52.710;6.438;2023-04-22T04:58:50;26.02;;;23.23;;
55003;SDS011;40900;52.710;6.438;2023-04-22T05:01:16;27.83;;;24.23;;
55003;SDS011;40900;52.710;6.438;2023-04-22T05:03:42;28.90;;;23.33;;
55003;SDS011;40900;52.710;6.438;2023-04-22T05:06:07;27.23;;;24.42;;
55003;SDS011;40900;52.710;6.438;2023-04-22T05:08:34;28.45;;;23.55;;
55003;SDS011;40900;52.710;6.438;2023-04-22T05:11:00;24.50;;;21.90;;
55003;SDS011;40900;52.710;6.438;2023-04-22T05:13:26;28.60;;;23.83;;
55003;SDS011;40900;52.710;6.438;2023-04-22T05:15:52;27.42;;;24.52;;
55003;SDS011;40900;52.710;6.438;2023-04-22T05:18:17;28.85;;;25.23;;
55003;SDS011;40900;52.710;6.438;2023-04-22T05:20:43;26.95;;;23.80;;
55003;SDS011;40900;52.710;6.438;2023-04-22T05:23:09;27.13;;;24.23;;
55003;SDS011;40900;52.710;6.438;2023-04-22T05:25:35;28.83;;;25.10;;
55003;SDS011;40900;52.710;6.438;2023-04-22T05:28:00;27.67;;;24.73;;
55003;SDS011;40900;52.710;6.438;2023-04-22T05:30:26;27.13;;;23.73;;
55003;SDS011;40900;52.710;6.438;2023-04-22T05:32:52;27.25;;;24.15;;
55003;SDS011;40900;52.710;6.438;2023-04-22T05:35:17;29.33;;;25.58;;
55003;SDS011;40900;52.710;6.438;2023-04-22T05:37:43;27.90;;;24.95;;
55003;SDS011;40900;52.710;6.438;2023-04-22T05:40:09;29.38;;;26.38;;
55003;SDS011;40900;52.710;6.438;2023-04-22T05:42:34;32.60;;;26.92;;
55003;SDS011;40900;52.710;6.438;2023-04-22T05:45:00;28.75;;;25.67;;
55003;SDS011;40900;52.710;6.438;2023-04-22T05:47:26;29.90;;;26.67;;
55003;SDS011;40900;52.710;6.438;2023-04-22T05:49:52;30.38;;;27.17;;
55003;SDS011;40900;52.710;6.438;2023-04-22T05:52:17;30.38;;;26.38;;
55003;SDS011;40900;52.710;6.438;2023-04-22T05:54:43;29.45;;;24.77;;
55003;SDS011;40900;52.710;6.438;2023-04-22T05:57:09;28.65;;;25.75;;
55003;SDS011;40900;52.710;6.438;2023-04-22T05:59:35;28.48;;;25.50;;
55003;SDS011;40900;52.710;6.438;2023-04-22T06:02:00;28.70;;;25.60;;
55003;SDS011;40900;52.710;6.438;2023-04-22T06:04:26;28.08;;;25.27;;
55003;SDS011;40900;52.710;6.438;2023-04-22T06:06:52;29.65;;;26.65;;
55003;SDS011;40900;52.710;6.438;2023-04-22T06:09:18;31.33;;;28.02;;
55003;SDS011;40900;52.710;6.438;2023-04-22T06:11:45;29.20;;;26.17;;
55003;SDS011;40900;52.710;6.438;2023-04-22T06:14:11;34.92;;;29.05;;
55003;SDS011;40900;52.710;6.438;2023-04-22T06:16:37;29.55;;;26.65;;
55003;SDS011;40900;52.710;6.438;2023-04-22T06:19:04;29.83;;;26.63;;
55003;SDS011;40900;52.710;6.438;2023-04-22T06:21:30;29.00;;;25.80;;
55003;SDS011;40900;52.710;6.438;2023-04-22T06:23:58;32.50;;;27.30;;
55003;SDS011;40900;52.710;6.438;2023-04-22T06:26:24;29.80;;;26.58;;
55003;SDS011;40900;52.710;6.438;2023-04-22T06:28:51;30.42;;;27.23;;
55003;SDS011;40900;52.710;6.438;2023-04-22T06:31:16;29.95;;;26.80;;
55003;SDS011;40900;52.710;6.438;2023-04-22T06:33:42;31.35;;;26.92;;
55003;SDS011;40900;52.710;6.438;2023-04-22T06:36:08;29.00;;;25.90;;
55003;SDS011;40900;52.710;6.438;2023-04-22T06:38:34;28.92;;;26.13;;
55003;SDS011;40900;52.710;6.438;2023-04-22T06:41:00;29.38;;;24.45;;
55003;SDS011;40900;52.710;6.438;2023-04-22T06:43:26;26.67;;;23.88;;
55003;SDS011;40900;52.710;6.438;2023-04-22T06:45:51;27.10;;;24.33;;
55003;SDS011;40900;52.710;6.438;2023-04-22T06:48:17;27.13;;;23.95;;
55003;SDS011;40900;52.710;6.438;2023-04-22T06:50:43;28.35;;;24.65;;
55003;SDS011;40900;52.710;6.438;2023-04-22T06:53:08;26.33;;;23.63;;
55003;SDS011;40900;52.710;6.438;2023-04-22T06:55:34;27.15;;;24.25;;
55003;SDS011;40900;52.710;6.438;2023-04-22T06:58:00;28.73;;;25.60;;
55003;SDS011;40900;52.710;6.438;2023-04-22T07:00:26;28.60;;;25.63;;
55003;SDS011;40900;52.710;6.438;2023-04-22T07:02:53;29.05;;;25.77;;
55003;SDS011;40900;52.710;6.438;2023-04-22T07:05:18;27.50;;;24.65;;
55003;SDS011;40900;52.710;6.438;2023-04-22T07:07:45;26.50;;;23.42;;
55003;SDS011;40900;52.710;6.438;2023-04-22T07:10:11;27.17;;;24.27;;
55003;SDS011;40900;52.710;6.438;2023-04-22T07:12:38;27.85;;;23.63;;
55003;SDS011;40900;52.710;6.438;2023-04-22T07:15:04;27.45;;;23.02;;
55003;SDS011;40900;52.710;6.438;2023-04-22T07:17:31;25.48;;;22.88;;
55003;SDS011;40900;52.710;6.438;2023-04-22T07:19:57;24.40;;;21.88;;
55003;SDS011;40900;52.710;6.438;2023-04-22T07:22:22;25.67;;;23.08;;
55003;SDS011;40900;52.710;6.438;2023-04-22T07:24:48;24.13;;;21.42;;
55003;SDS011;40900;52.710;6.438;2023-04-22T07:27:14;24.02;;;21.42;;
55003;SDS011;40900;52.710;6.438;2023-04-22T07:29:39;22.83;;;20.63;;
55003;SDS011;40900;52.710;6.438;2023-04-22T07:32:05;23.88;;;21.48;;
55003;SDS011;40900;52.710;6.438;2023-04-22T07:34:31;22.30;;;20.00;;
55003;SDS011;40900;52.710;6.438;2023-04-22T07:36:57;23.20;;;20.83;;
55003;SDS011;40900;52.710;6.438;2023-04-22T07:39:22;22.52;;;20.23;;
55003;SDS011;40900;52.710;6.438;2023-04-22T07:41:48;22.10;;;19.63;;
55003;SDS011;40900;52.710;6.438;2023-04-22T07:44:15;22.02;;;19.75;;
55003;SDS011;40900;52.710;6.438;2023-04-22T07:46:45;23.77;;;19.73;;
55003;SDS011;40900;52.710;6.438;2023-04-22T07:49:11;21.35;;;19.02;;
55003;SDS011;40900;52.710;6.438;2023-04-22T07:51:42;19.63;;;17.75;;
55003;SDS011;40900;52.710;6.438;2023-04-22T07:54:08;20.02;;;18.00;;
55003;SDS011;40900;52.710;6.438;2023-04-22T07:56:34;17.80;;;15.98;;
55003;SDS011;40900;52.710;6.438;2023-04-22T07:58:59;17.75;;;15.90;;
55003;SDS011;40900;52.710;6.438;2023-04-22T08:01:25;18.27;;;16.20;;
55003;SDS011;40900;52.710;6.438;2023-04-22T08:03:51;16.35;;;14.75;;
55003;SDS011;40900;52.710;6.438;2023-04-22T08:06:16;16.75;;;15.10;;
55003;SDS011;40900;52.710;6.438;2023-04-22T08:08:43;15.48;;;13.95;;
55003;SDS011;40900;52.710;6.438;2023-04-22T08:11:08;15.15;;;13.40;;
55003;SDS011;40900;52.710;6.438;2023-04-22T08:13:34;15.48;;;13.25;;
55003;SDS011;40900;52.710;6.438;2023-04-22T08:16:00;14.80;;;13.35;;
55003;SDS011;40900;52.710;6.438;2023-04-22T08:18:28;14.93;;;13.35;;
55003;SDS011;40900;52.710;6.438;2023-04-22T08:20:54;14.18;;;12.77;;
55003;SDS011;40900;52.710;6.438;2023-04-22T08:23:20;13.75;;;12.27;;
55003;SDS011;40900;52.710;6.438;2023-04-22T08:25:49;13.23;;;11.93;;
55003;SDS011;40900;52.710;6.438;2023-04-22T08:28:15;12.57;;;11.35;;
55003;SDS011;40900;52.710;6.438;2023-04-22T08:30:42;15.23;;;11.98;;
55003;SDS011;40900;52.710;6.438;2023-04-22T08:33:07;12.90;;;11.50;;
55003;SDS011;40900;52.710;6.438;2023-04-22T08:35:34;12.85;;;11.63;;
55003;SDS011;40900;52.710;6.438;2023-04-22T08:38:00;11.18;;;10.10;;
55003;SDS011;40900;52.710;6.438;2023-04-22T08:40:26;12.05;;;10.40;;
55003;SDS011;40900;52.710;6.438;2023-04-22T08:42:52;10.88;;;9.57;;
55003;SDS011;40900;52.710;6.438;2023-04-22T08:45:20;12.35;;;9.50;;
55003;SDS011;40900;52.710;6.438;2023-04-22T08:47:46;10.10;;;9.07;;
55003;SDS011;40900;52.710;6.438;2023-04-22T08:50:13;9.93;;;8.90;;
55003;SDS011;40900;52.710;6.438;2023-04-22T08:52:40;11.20;;;8.93;;
55003;SDS011;40900;52.710;6.438;2023-04-22T08:55:07;9.60;;;8.65;;
55003;SDS011;40900;52.710;6.438;2023-04-22T08:57:34;9.63;;;8.73;;
55003;SDS011;40900;52.710;6.438;2023-04-22T09:00:02;9.75;;;8.35;;
55003;SDS011;40900;52.710;6.438;2023-04-22T09:02:29;11.13;;;8.70;;
55003;SDS011;40900;52.710;6.438;2023-04-22T09:04:56;8.15;;;7.35;;
55003;SDS011;40900;52.710;6.438;2023-04-22T09:07:29;9.18;;;7.97;;
55003;SDS011;40900;52.710;6.438;2023-04-22T09:09:55;8.75;;;7.88;;
55003;SDS011;40900;52.710;6.438;2023-04-22T09:12:22;9.43;;;8.18;;
55003;SDS011;40900;52.710;6.438;2023-04-22T09:14:48;9.35;;;8.20;;
55003;SDS011;40900;52.710;6.438;2023-04-22T09:17:15;9.77;;;7.65;;
55003;SDS011;40900;52.710;6.438;2023-04-22T09:19:43;8.10;;;7.25;;
55003;SDS011;40900;52.710;6.438;2023-04-22T09:22:10;10.15;;;8.88;;
55003;SDS011;40900;52.710;6.438;2023-04-22T09:24:48;8.65;;;7.75;;
55003;SDS011;40900;52.710;6.438;2023-04-22T09:27:18;11.27;;;8.30;;
55003;SDS011;40900;52.710;6.438;2023-04-22T09:29:48;10.32;;;8.20;;
55003;SDS011;40900;52.710;6.438;2023-04-22T09:32:16;9.32;;;8.38;;
55003;SDS011;40900;52.710;6.438;2023-04-22T09:34:52;9.10;;;8.30;;
55003;SDS011;40900;52.710;6.438;2023-04-22T09:37:19;11.07;;;8.30;;
55003;SDS011;40900;52.710;6.438;2023-04-22T09:39:52;9.68;;;8.15;;
55003;SDS011;40900;52.710;6.438;2023-04-22T09:42:18;8.50;;;7.68;;
55003;SDS011;40900;52.710;6.438;2023-04-22T09:44:46;8.32;;;7.43;;
55003;SDS011;40900;52.710;6.438;2023-04-22T09:47:13;8.65;;;7.75;;
55003;SDS011;40900;52.710;6.438;2023-04-22T09:49:38;9.77;;;7.68;;
55003;SDS011;40900;52.710;6.438;2023-04-22T09:52:04;8.15;;;7.32;;
55003;SDS011;40900;52.710;6.438;2023-04-22T09:54:30;8.27;;;7.00;;
55003;SDS011;40900;52.710;6.438;2023-04-22T09:56:56;7.13;;;6.43;;
55003;SDS011;40900;52.710;6.438;2023-04-22T09:59:26;6.90;;;6.20;;
55003;SDS011;40900;52.710;6.438;2023-04-22T10:02:02;7.38;;;6.63;;
55003;SDS011;40900;52.710;6.438;2023-04-22T10:04:28;6.93;;;6.03;;
55003;SDS011;40900;52.710;6.438;2023-04-22T10:06:55;8.35;;;5.85;;
55003;SDS011;40900;52.710;6.438;2023-04-22T10:09:22;8.98;;;6.65;;
55003;SDS011;40900;52.710;6.438;2023-04-22T10:11:49;7.00;;;6.30;;
55003;SDS011;40900;52.710;6.438;2023-04-22T10:14:18;9.07;;;6.32;;
55003;SDS011;40900;52.710;6.438;2023-04-22T10:16:46;10.00;;;6.63;;
55003;SDS011;40900;52.710;6.438;2023-04-22T10:19:14;9.82;;;6.32;;
55003;SDS011;40900;52.710;6.438;2023-04-22T10:21:47;8.48;;;6.55;;
55003;SDS011;40900;52.710;6.438;2023-04-22T10:24:26;7.90;;;7.20;;
55003;SDS011;40900;52.710;6.438;2023-04-22T10:26:54;10.20;;;6.80;;
55003;SDS011;40900;52.710;6.438;2023-04-22T10:29:22;7.05;;;6.13;;
55003;SDS011;40900;52.710;6.438;2023-04-22T10:35:08;8.25;;;6.35;;
55003;SDS011;40900;52.710;6.438;2023-04-22T10:37:36;8.13;;;7.30;;
55003;SDS011;40900;52.710;6.438;2023-04-22T10:42:33;8.20;;;6.55;;
55003;SDS011;40900;52.710;6.438;2023-04-22T10:45:00;7.47;;;6.68;;
55003;SDS011;40900;52.710;6.438;2023-04-22T10:47:27;8.27;;;6.60;;
55003;SDS011;40900;52.710;6.438;2023-04-22T10:50:09;7.30;;;6.43;;
55003;SDS011;40900;52.710;6.438;2023-04-22T10:52:35;9.13;;;6.53;;
55003;SDS011;40900;52.710;6.438;2023-04-22T10:55:02;7.53;;;6.82;;
55003;SDS011;40900;52.710;6.438;2023-04-22T10:57:32;10.13;;;6.35;;
55003;SDS011;40900;52.710;6.438;2023-04-22T11:00:27;7.07;;;6.38;;
55003;SDS011;40900;52.710;6.438;2023-04-22T11:05:29;8.95;;;6.25;;
55003;SDS011;40900;52.710;6.438;2023-04-22T11:08:01;9.50;;;6.65;;
55003;SDS011;40900;52.710;6.438;2023-04-22T11:10:44;8.52;;;7.53;;
55003;SDS011;40900;52.710;6.438;2023-04-22T11:13:18;7.28;;;6.53;;
55003;SDS011;40900;52.710;6.438;2023-04-22T11:15:47;6.72;;;6.13;;
55003;SDS011;40900;52.710;6.438;2023-04-22T11:18:32;8.93;;;7.03;;
55003;SDS011;40900;52.710;6.438;2023-04-22T11:21:01;9.52;;;7.70;;
55003;SDS011;40900;52.710;6.438;2023-04-22T11:23:30;8.75;;;7.30;;
55003;SDS011;40900;52.710;6.438;2023-04-22T11:25:57;8.02;;;7.25;;
55003;SDS011;40900;52.710;6.438;2023-04-22T11:28:25;7.93;;;7.20;;
55003;SDS011;40900;52.710;6.438;2023-04-22T11:30:51;8.88;;;7.47;;
55003;SDS011;40900;52.710;6.438;2023-04-22T11:33:17;8.02;;;7.22;;
55003;SDS011;40900;52.710;6.438;2023-04-22T11:35:43;8.32;;;7.47;;
55003;SDS011;40900;52.710;6.438;2023-04-22T11:38:09;8.38;;;7.50;;
55003;SDS011;40900;52.710;6.438;2023-04-22T11:40:40;8.65;;;7.75;;
55003;SDS011;40900;52.710;6.438;2023-04-22T11:43:07;8.43;;;7.35;;
55003;SDS011;40900;52.710;6.438;2023-04-22T11:45:34;8.05;;;6.93;;
55003;SDS011;40900;52.710;6.438;2023-04-22T11:48:02;8.35;;;7.45;;
55003;SDS011;40900;52.710;6.438;2023-04-22T11:50:30;8.40;;;7.60;;
55003;SDS011;40900;52.710;6.438;2023-04-22T11:53:01;8.45;;;7.47;;
55003;SDS011;40900;52.710;6.438;2023-04-22T11:55:44;7.93;;;6.90;;
55003;SDS011;40900;52.710;6.438;2023-04-22T11:58:15;7.85;;;6.32;;
55003;SDS011;40900;52.710;6.438;2023-04-22T12:00:49;8.73;;;6.53;;
55003;SDS011;40900;52.710;6.438;2023-04-22T12:03:23;7.97;;;6.68;;
55003;SDS011;40900;52.710;6.438;2023-04-22T12:05:54;7.22;;;6.35;;
55003;SDS011;40900;52.710;6.438;2023-04-22T12:08:29;8.30;;;6.25;;
55003;SDS011;40900;52.710;6.438;2023-04-22T12:11:06;8.57;;;6.03;;
55003;SDS011;40900;52.710;6.438;2023-04-22T12:16:08;8.25;;;6.53;;
55003;SDS011;40900;52.710;6.438;2023-04-22T12:18:39;8.18;;;6.88;;
55003;SDS011;40900;52.710;6.438;2023-04-22T12:21:25;9.38;;;7.28;;
55003;SDS011;40900;52.710;6.438;2023-04-22T12:24:02;14.55;;;7.50;;
55003;SDS011;40900;52.710;6.438;2023-04-22T12:26:35;11.30;;;7.20;;
55003;SDS011;40900;52.710;6.438;2023-04-22T12:29:03;7.80;;;7.00;;
55003;SDS011;40900;52.710;6.438;2023-04-22T12:31:29;9.25;;;7.18;;
55003;SDS011;40900;52.710;6.438;2023-04-22T12:33:55;8.00;;;7.20;;
55003;SDS011;40900;52.710;6.438;2023-04-22T12:36:20;8.48;;;7.38;;
55003;SDS011;40900;52.710;6.438;2023-04-22T12:38:47;9.18;;;7.03;;
55003;SDS011;40900;52.710;6.438;2023-04-22T12:41:13;9.32;;;6.22;;
55003;SDS011;40900;52.710;6.438;2023-04-22T12:43:39;8.45;;;6.45;;
55003;SDS011;40900;52.710;6.438;2023-04-22T12:46:06;9.18;;;6.38;;
55003;SDS011;40900;52.710;6.438;2023-04-22T12:48:32;8.95;;;6.53;;
55003;SDS011;40900;52.710;6.438;2023-04-22T12:51:00;8.27;;;6.82;;
55003;SDS011;40900;52.710;6.438;2023-04-22T12:53:27;9.52;;;6.88;;
55003;SDS011;40900;52.710;6.438;2023-04-22T12:55:53;9.52;;;6.45;;
55003;SDS011;40900;52.710;6.438;2023-04-22T12:58:19;10.57;;;6.45;;
55003;SDS011;40900;52.710;6.438;2023-04-22T13:00:45;11.68;;;6.32;;
55003;SDS011;40900;52.710;6.438;2023-04-22T13:03:12;8.52;;;6.10;;
55003;SDS011;40900;52.710;6.438;2023-04-22T13:05:38;7.72;;;6.05;;
55003;SDS011;40900;52.710;6.438;2023-04-22T13:08:04;12.80;;;6.10;;
55003;SDS011;40900;52.710;6.438;2023-04-22T13:10:30;7.03;;;6.22;;
55003;SDS011;40900;52.710;6.438;2023-04-22T13:12:56;9.85;;;6.00;;
55003;SDS011;40900;52.710;6.438;2023-04-22T13:15:22;13.73;;;6.60;;
55003;SDS011;40900;52.710;6.438;2023-04-22T13:17:50;7.80;;;5.68;;
55003;SDS011;40900;52.710;6.438;2023-04-22T13:20:16;8.23;;;5.72;;
55003;SDS011;40900;52.710;6.438;2023-04-22T13:22:42;8.40;;;5.85;;
55003;SDS011;40900;52.710;6.438;2023-04-22T13:25:08;9.43;;;6.28;;
55003;SDS011;40900;52.710;6.438;2023-04-22T13:27:34;8.68;;;6.05;;
55003;SDS011;40900;52.710;6.438;2023-04-22T13:30:01;8.13;;;5.70;;
55003;SDS011;40900;52.710;6.438;2023-04-22T13:32:27;9.75;;;6.28;;
55003;SDS011;40900;52.710;6.438;2023-04-22T13:34:53;9.30;;;5.57;;
55003;SDS011;40900;52.710;6.438;2023-04-22T13:37:19;9.70;;;5.97;;
55003;SDS011;40900;52.710;6.438;2023-04-22T13:39:45;6.72;;;5.88;;
55003;SDS011;40900;52.710;6.438;2023-04-22T13:42:11;7.95;;;5.68;;
55003;SDS011;40900;52.710;6.438;2023-04-22T13:44:38;9.57;;;5.80;;
55003;SDS011;40900;52.710;6.438;2023-04-22T13:47:04;10.32;;;6.18;;
55003;SDS011;40900;52.710;6.438;2023-04-22T13:49:30;9.43;;;7.22;;
55003;SDS011;40900;52.710;6.438;2023-04-22T13:51:56;9.23;;;6.78;;
55003;SDS011;40900;52.710;6.438;2023-04-22T13:54:22;9.70;;;6.97;;
55003;SDS011;40900;52.710;6.438;2023-04-22T13:56:48;9.70;;;6.70;;
55003;SDS011;40900;52.710;6.438;2023-04-22T13:59:14;10.70;;;6.40;;
55003;SDS011;40900;52.710;6.438;2023-04-22T14:01:40;8.02;;;7.13;;
55003;SDS011;40900;52.710;6.438;2023-04-22T14:04:05;14.50;;;7.00;;
55003;SDS011;40900;52.710;6.438;2023-04-22T14:06:31;10.65;;;7.00;;
55003;SDS011;40900;52.710;6.438;2023-04-22T14:08:57;7.68;;;6.40;;
55003;SDS011;40900;52.710;6.438;2023-04-22T14:11:23;10.38;;;6.80;;
55003;SDS011;40900;52.710;6.438;2023-04-22T14:13:49;8.00;;;6.50;;
55003;SDS011;40900;52.710;6.438;2023-04-22T14:16:14;10.27;;;7.03;;
55003;SDS011;40900;52.710;6.438;2023-04-22T14:18:41;11.43;;;6.60;;
55003;SDS011;40900;52.710;6.438;2023-04-22T14:21:09;9.35;;;6.70;;
55003;SDS011;40900;52.710;6.438;2023-04-22T14:23:36;7.63;;;6.65;;
55003;SDS011;40900;52.710;6.438;2023-04-22T14:26:04;8.38;;;7.47;;
55003;SDS011;40900;52.710;6.438;2023-04-22T14:28:31;10.55;;;7.70;;
55003;SDS011;40900;52.710;6.438;2023-04-22T14:30:57;9.13;;;7.70;;
55003;SDS011;40900;52.710;6.438;2023-04-22T14:33:23;8.40;;;7.40;;
55003;SDS011;40900;52.710;6.438;2023-04-22T14:35:50;9.93;;;7.55;;
55003;SDS011;40900;52.710;6.438;2023-04-22T14:38:17;9.63;;;8.00;;
55003;SDS011;40900;52.710;6.438;2023-04-22T14:40:43;9.60;;;8.60;;